CYZV

Sept-Îles Airport

Sept-Îles, Quebec, Canada
METAR CYZV 210900Z 31007KT 30SM FEW040 FEW060 08/02 A2964 RMK CU1SC1 CU TR SLP039
Observed Flight Rules
Jun-21 @ 09:00 UTC (an hour ago) Visual Flight Rules
Wind Visibility Clouds
310° at 7 knots 30 miles
  • Few at 4,000' AGL
  • Few at 6,000' AGL
Temperatures Readings
Current 8°C / 46°F
Dewpoint 2°C / 36°F
Humidity 66%
Altimeter 29.64" Hg
Pressure 1003.9 hPa
Elevation 55
METAR CYZV 210900Z 31007KT 30SM FEW040 FEW060 08/02 A2964 RMK CU1SC1 CU TR SLP039
Observed Flight Rules
Jun-21 @ 09:00 UTC
(an hour ago)
VFR
Wind Visibility
310° at 7 knots 30 miles
Clouds
  • Few at 4,000' AGL
  • Few at 6,000' AGL
Temperature Dewpoint
8°C / 46°F 2°C / 36°F
Humidity Altimeter Pressure
66% 29.64" Hg 1003.9 hPa